Time;durP1;ratioP1;P1;durP2;ratioP2;P2;SDS_P1;SDS_P2;PMS_P1;PMS_P2;Temp;Humidity;BMP_temperature;BMP_pressure;BME280_temperature;BME280_humidity;BME280_pressure;Samples;Min_cycle;Max_cycle;Signal;HPM_P1;HPM_P2
2021/03/10 00:00:12;;;;;;;38.65;24.40;;;;;;;2.38;78.57;95847.28;5035466;28;20053;-41
2021/03/10 00:02:40;;;;;;;39.20;23.45;;;;;;;2.57;77.74;95853.50;5035560;28;20618;-40
2021/03/10 00:05:08;;;;;;;39.10;24.35;;;;;;;2.29;78.25;95838.31;5034480;28;20049;-40
2021/03/10 00:07:35;;;;;;;43.08;24.65;;;;;;;1.93;80.34;95835.94;5034152;28;20099;-40
2021/03/10 00:10:07;;;;;;;39.90;24.52;;;;;;;1.91;80.24;95840.75;5033700;28;20053;-41
2021/03/10 00:12:34;;;;;;;38.45;23.92;;;;;;;1.90;80.69;95835.69;5034577;28;20057;-40
2021/03/10 00:15:03;;;;;;;38.97;24.63;;;;;;;1.81;80.91;95830.94;5041525;28;20092;-41
2021/03/10 00:17:29;;;;;;;36.28;23.10;;;;;;;1.82;81.14;95837.06;5036582;28;20057;-42
2021/03/10 00:19:56;;;;;;;36.80;23.25;;;;;;;1.79;81.51;95841.13;5033196;28;20065;-40
2021/03/10 00:22:22;;;;;;;42.85;26.20;;;;;;;2.08;80.84;95846.50;5032882;28;20056;-40
2021/03/10 00:24:48;;;;;;;38.40;23.73;;;;;;;2.29;80.08;95843.63;5034199;28;20083;-40
2021/03/10 00:27:32;;;;;;;37.80;23.52;;;;;;;2.32;79.27;95849.22;5033128;28;20053;-41
2021/03/10 00:30:01;;;;;;;39.00;24.20;;;;;;;3.03;77.19;95844.97;5033274;28;20103;-41
2021/03/10 00:32:28;;;;;;;39.63;24.92;;;;;;;2.35;79.10;95842.50;5034061;28;20045;-41
2021/03/10 00:34:56;;;;;;;39.22;24.13;;;;;;;2.83;77.28;95853.25;5034337;28;20534;-44
2021/03/10 00:37:24;;;;;;;39.85;25.10;;;;;;;2.73;77.70;95850.66;5037158;28;20050;-39
2021/03/10 00:39:51;;;;;;;44.17;26.50;;;;;;;2.68;77.76;95848.06;5035114;28;20068;-40
2021/03/10 00:42:18;;;;;;;41.97;24.98;;;;;;;2.62;77.57;95854.53;5036989;28;20202;-40
2021/03/10 00:44:45;;;;;;;37.33;23.92;;;;;;;1.89;80.33;95844.78;5035371;28;20087;-40
2021/03/10 00:47:13;;;;;;;41.33;25.67;;;;;;;2.24;79.37;95851.69;5035852;28;20064;-40
2021/03/10 00:49:41;;;;;;;42.35;26.35;;;;;;;2.10;80.21;95841.66;5035290;28;20057;-40
2021/03/10 00:52:09;;;;;;;42.33;26.10;;;;;;;2.23;80.30;95844.75;5035461;28;20052;-40
2021/03/10 00:54:36;;;;;;;41.40;26.85;;;;;;;2.40;79.88;95844.31;5035453;28;20050;-40
2021/03/10 00:57:03;;;;;;;41.55;25.15;;;;;;;1.91;80.51;95838.06;5033737;28;20083;-40
2021/03/10 00:59:30;;;;;;;41.75;24.25;;;;;;;1.84;81.54;95845.59;5032693;28;20053;-41
2021/03/10 01:01:56;;;;;;;43.63;26.67;;;;;;;2.25;79.78;95842.63;5032182;28;20053;-40
2021/03/10 01:04:23;;;;;;;47.30;27.45;;;;;;;1.85;81.23;95845.34;5033242;28;20049;-39
2021/03/10 01:06:50;;;;;;;48.35;29.35;;;;;;;1.62;82.62;95843.34;5033399;28;20133;-42
2021/03/10 01:09:18;;;;;;;45.42;27.88;;;;;;;1.78;82.31;95844.06;5031946;28;20128;-41
2021/03/10 01:11:44;;;;;;;47.35;28.17;;;;;;;2.02;80.90;95842.28;5032756;28;20057;-41
2021/03/10 01:14:12;;;;;;;49.72;29.20;;;;;;;2.11;80.85;95823.75;5047715;28;20049;-41
2021/03/10 01:16:39;;;;;;;46.55;28.30;;;;;;;2.10;80.36;95830.97;5047457;28;20238;-41
2021/03/10 01:19:06;;;;;;;44.58;28.08;;;;;;;1.73;82.31;95836.91;5032711;28;20057;-41
2021/03/10 01:21:33;;;;;;;47.42;26.77;;;;;;;1.44;83.99;95852.03;5032075;28;20045;-42
2021/03/10 01:23:59;;;;;;;47.03;26.35;;;;;;;1.59;83.46;95839.41;5032692;28;20052;-41
2021/03/10 01:26:27;;;;;;;49.30;28.92;;;;;;;1.69;83.15;95832.38;5033274;28;20049;-40
2021/03/10 01:28:53;;;;;;;52.88;30.65;;;;;;;1.52;84.02;95828.22;5039906;28;20073;-40
2021/03/10 01:31:20;;;;;;;50.85;28.52;;;;;;;1.44;83.97;95831.50;5036764;28;20081;-40
2021/03/10 01:33:46;;;;;;;50.63;29.02;;;;;;;1.55;84.15;95824.22;5044535;28;20041;-40
2021/03/10 01:36:13;;;;;;;46.35;26.77;;;;;;;1.59;83.54;95812.72;5052093;28;20052;-39
2021/03/10 01:38:39;;;;;;;51.70;30.25;;;;;;;1.57;83.31;95809.53;5052761;28;20045;-39
2021/03/10 01:41:06;;;;;;;48.78;28.17;;;;;;;1.54;83.92;95815.41;5054800;28;20053;-40
2021/03/10 01:43:32;;;;;;;43.90;26.38;;;;;;;1.54;84.21;95822.63;5053477;28;20052;-40
2021/03/10 01:45:59;;;;;;;46.50;27.88;;;;;;;1.34;85.06;95816.34;5054187;28;20053;-39
2021/03/10 01:48:26;;;;;;;48.95;28.73;;;;;;;1.23;85.00;95801.47;5053440;28;20060;-40
2021/03/10 01:50:54;;;;;;;46.40;27.58;;;;;;;1.29;84.92;95807.59;5041196;28;20077;-40
2021/03/10 01:53:21;;;;;;;46.83;27.15;;;;;;;1.40;84.65;95815.25;5032940;28;20461;-40
2021/03/10 01:55:52;;;;;;;47.75;28.55;;;;;;;1.34;85.16;95812.91;5035129;28;20084;-39
2021/03/10 01:58:19;;;;;;;48.70;27.92;;;;;;;1.28;85.07;95804.13;5038893;28;20538;-41
2021/03/10 02:00:46;;;;;;;53.25;29.63;;;;;;;1.29;85.30;95808.38;5052320;28;20049;-41
2021/03/10 02:03:12;;;;;;;51.20;30.35;;;;;;;1.48;85.11;95805.84;5053958;28;20076;-41
2021/03/10 02:05:39;;;;;;;49.85;29.35;;;;;;;1.66;83.90;95808.94;5050205;28;20510;-40
2021/03/10 02:08:21;;;;;;;46.20;29.23;;;;;;;1.51;84.56;95807.19;5031991;28;20088;-40
2021/03/10 02:11:26;;;;;;;48.50;28.27;;;;;;;1.47;84.91;95806.94;5031773;28;20107;-40
2021/03/10 02:13:58;;;;;;;46.15;27.88;;;;;;;1.52;84.89;95804.22;5032015;28;20056;-42
2021/03/10 02:16:47;;;;;;;49.58;29.05;;;;;;;1.52;85.00;95801.56;5033899;28;20121;-41
2021/03/10 02:19:13;;;;;;;48.35;29.23;;;;;;;1.45;85.30;95797.63;5034013;28;20053;-40
2021/03/10 02:22:00;;;;;;;49.05;28.02;;;;;;;1.48;84.89;95800.53;5050316;28;20057;-40
2021/03/10 02:24:32;;;;;;;46.70;29.63;;;;;;;1.44;84.55;95796.81;5054043;28;20053;-38
2021/03/10 02:27:02;;;;;;;48.35;29.05;;;;;;;1.46;84.92;95793.88;5051627;28;20540;-41
2021/03/10 02:29:29;;;;;;;49.05;30.15;;;;;;;1.43;84.91;95795.25;5033633;28;20061;-40
2021/03/10 02:31:58;;;;;;;46.67;29.25;;;;;;;1.50;84.78;95795.72;5031821;28;20188;-40
2021/03/10 02:34:27;;;;;;;50.90;30.08;;;;;;;1.44;84.43;95785.38;5031689;28;20096;-41
2021/03/10 02:37:01;;;;;;;50.40;29.70;;;;;;;1.44;84.98;95786.16;5033678;28;20113;-40
2021/03/10 02:39:29;;;;;;;52.33;31.20;;;;;;;1.70;84.20;95788.66;5032209;28;20068;-40
2021/03/10 02:41:56;;;;;;;49.20;28.95;;;;;;;1.61;83.70;95791.91;5034214;28;20053;-39
2021/03/10 02:44:23;;;;;;;51.80;30.38;;;;;;;1.80;83.53;95800.03;5033872;28;20080;-40
2021/03/10 02:46:50;;;;;;;53.42;29.90;;;;;;;1.64;83.13;95794.00;5031519;28;20132;-42
2021/03/10 02:49:18;;;;;;;52.17;30.33;;;;;;;1.47;84.42;95796.28;5031437;28;20136;-40
2021/03/10 02:51:46;;;;;;;49.47;30.40;;;;;;;1.64;83.95;95790.56;5031652;28;20160;-40
2021/03/10 02:54:15;;;;;;;52.45;30.88;;;;;;;1.82;83.03;95791.72;5031869;28;20167;-41
2021/03/10 02:56:43;;;;;;;53.83;33.38;;;;;;;1.83;83.45;95788.78;5031463;28;20058;-40
2021/03/10 02:59:10;;;;;;;48.08;30.85;;;;;;;1.75;83.56;95791.25;5045573;28;20053;-40
2021/03/10 03:01:38;;;;;;;54.75;32.25;;;;;;;2.00;82.80;95782.25;5031751;28;20576;-40
2021/03/10 03:04:05;;;;;;;48.42;30.00;;;;;;;1.79;83.06;95784.31;5031490;28;20145;-40
2021/03/10 03:06:32;;;;;;;54.30;31.45;;;;;;;1.97;82.55;95788.94;5031447;28;20073;-40
2021/03/10 03:08:58;;;;;;;48.42;29.48;;;;;;;1.73;82.47;95772.09;5031214;28;20064;-40
2021/03/10 03:11:25;;;;;;;53.50;32.10;;;;;;;1.92;82.51;95785.50;5031149;28;20064;-41
2021/03/10 03:13:52;;;;;;;52.80;31.15;;;;;;;1.87;82.89;95789.03;5031334;28;20060;-40
2021/03/10 03:16:19;;;;;;;53.08;31.67;;;;;;;2.13;81.82;95781.59;5035149;28;20077;-41
2021/03/10 03:18:46;;;;;;;52.20;31.55;;;;;;;1.84;82.68;95790.38;5031458;28;20514;-43
2021/03/10 03:21:13;;;;;;;51.08;30.73;;;;;;;1.71;83.23;95804.34;5035456;28;20399;-42
2021/03/10 03:23:40;;;;;;;47.92;30.25;;;;;;;1.81;83.26;95804.28;5035092;28;20073;-41
2021/03/10 03:26:07;;;;;;;52.45;31.35;;;;;;;1.91;82.50;95789.25;5034846;28;20465;-41
2021/03/10 03:28:34;;;;;;;53.05;31.52;;;;;;;2.05;82.52;95800.91;5037658;28;20486;-40
2021/03/10 03:31:03;;;;;;;50.78;32.30;;;;;;;1.83;83.26;95804.00;5060909;28;20510;-41
2021/03/10 03:33:30;;;;;;;50.35;31.35;;;;;;;1.91;82.86;95798.06;5063442;28;20048;-41
2021/03/10 03:35:58;;;;;;;50.78;31.25;;;;;;;1.94;82.78;95810.84;5048451;28;20049;-43
2021/03/10 03:38:26;;;;;;;52.25;32.00;;;;;;;1.90;83.37;95811.69;5028236;23;20050;-43
2021/03/10 03:40:54;;;;;;;53.75;30.98;;;;;;;1.99;82.50;95818.81;5005159;28;20049;-44
2021/03/10 03:43:25;;;;;;;53.28;32.17;;;;;;;1.80;83.30;95820.56;4998190;28;20046;-42
2021/03/10 03:45:51;;;;;;;55.08;33.40;;;;;;;1.70;84.16;95824.13;5004060;28;20053;-42
2021/03/10 03:48:21;;;;;;;53.63;31.05;;;;;;;1.66;83.85;95831.09;5010593;28;20462;-42
2021/03/10 03:50:48;;;;;;;51.53;30.55;;;;;;;1.78;83.50;95822.72;4982072;28;20503;-44
2021/03/10 03:53:15;;;;;;;53.72;32.38;;;;;;;1.58;84.29;95813.78;5005393;28;20050;-44
2021/03/10 03:55:42;;;;;;;55.08;33.03;;;;;;;1.75;84.06;95825.94;5005447;28;20054;-44
2021/03/10 03:58:09;;;;;;;54.22;32.42;;;;;;;2.01;82.36;95816.66;5009560;28;20132;-43
2021/03/10 04:00:36;;;;;;;54.72;33.70;;;;;;;1.92;82.76;95829.03;4993406;28;20055;-43
2021/03/10 04:03:03;;;;;;;54.33;34.05;;;;;;;1.91;83.20;95827.41;4997033;28;20050;-43
2021/03/10 04:05:30;;;;;;;51.15;31.17;;;;;;;1.73;83.97;95828.09;4991167;28;20090;-42
2021/03/10 04:08:08;;;;;;;59.03;35.28;;;;;;;2.03;82.85;95821.72;4983209;28;20074;-43
2021/03/10 04:10:37;;;;;;;57.08;33.20;;;;;;;2.07;82.63;95828.88;4989281;28;20530;-42
2021/03/10 04:13:04;;;;;;;56.95;33.40;;;;;;;1.99;82.91;95818.03;4991540;28;20488;-43
2021/03/10 04:15:32;;;;;;;55.75;32.60;;;;;;;2.00;82.87;95827.63;4985280;28;20047;-43
2021/03/10 04:17:59;;;;;;;52.95;32.72;;;;;;;2.06;82.01;95824.63;5006562;28;20058;-43
2021/03/10 04:20:26;;;;;;;56.15;33.50;;;;;;;2.07;82.29;95822.75;4989979;28;20053;-43
2021/03/10 04:22:53;;;;;;;58.00;34.67;;;;;;;1.93;83.21;95840.47;5009199;28;20053;-43
2021/03/10 04:25:20;;;;;;;55.67;34.80;;;;;;;2.21;82.09;95829.03;5002765;28;20565;-43
2021/03/10 04:27:47;;;;;;;55.53;34.63;;;;;;;1.95;83.36;95825.78;4991394;28;20409;-43
2021/03/10 04:30:14;;;;;;;60.28;34.78;;;;;;;2.20;82.78;95829.31;4974357;28;20042;-43
2021/03/10 04:32:42;;;;;;;56.38;35.20;;;;;;;2.28;82.13;95818.81;4984583;28;20042;-41
2021/03/10 04:35:22;;;;;;;61.42;35.90;;;;;;;2.09;82.47;95828.59;5004420;28;20047;-42
2021/03/10 04:37:50;;;;;;;57.63;34.15;;;;;;;2.03;82.45;95832.38;4988108;28;20483;-43
2021/03/10 04:40:17;;;;;;;61.25;34.05;;;;;;;2.08;82.59;95830.47;5007556;28;20057;-42
2021/03/10 04:42:45;;;;;;;57.05;35.03;;;;;;;2.32;81.96;95837.75;4993632;28;20097;-46
2021/03/10 04:45:13;;;;;;;57.00;35.83;;;;;;;2.35;81.33;95834.50;4993815;28;20060;-43
2021/03/10 04:47:41;;;;;;;59.67;35.42;;;;;;;2.29;81.31;95832.97;5000603;28;20453;-41
2021/03/10 04:50:08;;;;;;;60.72;37.28;;;;;;;2.61;80.61;95842.25;4992312;28;20061;-42
2021/03/10 04:52:35;;;;;;;61.25;36.38;;;;;;;2.41;80.92;95844.06;4996205;28;20128;-42
2021/03/10 04:55:08;;;;;;;59.00;36.22;;;;;;;2.40;81.18;95845.13;5006785;28;20060;-44
2021/03/10 04:57:36;;;;;;;59.42;36.40;;;;;;;2.54;80.88;95848.72;5001978;28;20565;-43
2021/03/10 05:00:05;;;;;;;62.13;37.30;;;;;;;2.57;80.63;95861.53;5003564;28;20042;-42
2021/03/10 05:02:32;;;;;;;61.85;36.95;;;;;;;2.35;81.42;95850.53;4991262;28;20054;-42
2021/03/10 05:04:59;;;;;;;60.72;35.97;;;;;;;2.41;80.41;95856.63;5003585;28;20055;-42
2021/03/10 05:07:26;;;;;;;64.60;38.38;;;;;;;2.30;81.54;95855.91;4999993;28;20530;-43
2021/03/10 05:09:52;;;;;;;58.95;35.08;;;;;;;2.20;81.99;95862.13;5002173;28;20054;-42
2021/03/10 05:12:19;;;;;;;55.85;34.72;;;;;;;2.07;82.51;95866.22;4992621;28;20447;-41
2021/03/10 05:14:46;;;;;;;59.63;35.78;;;;;;;2.10;82.36;95865.69;4994218;28;20129;-42
2021/03/10 05:17:12;;;;;;;67.03;37.70;;;;;;;2.16;82.39;95866.44;5001830;28;20080;-42
2021/03/10 05:19:39;;;;;;;57.58;34.25;;;;;;;1.84;82.54;95864.28;4997329;28;20042;-43
2021/03/10 05:22:05;;;;;;;63.65;37.40;;;;;;;2.06;82.73;95871.88;4986722;28;20054;-45
2021/03/10 05:24:32;;;;;;;62.42;36.67;;;;;;;2.01;82.51;95870.00;4999608;28;20047;-47
2021/03/10 05:26:58;;;;;;;64.60;36.85;;;;;;;2.11;82.67;95871.81;4999985;28;20057;-42
2021/03/10 05:29:25;;;;;;;64.05;37.83;;;;;;;2.09;82.96;95869.44;5006173;28;20131;-40
2021/03/10 05:31:51;;;;;;;63.85;38.30;;;;;;;2.07;82.94;95868.91;4999523;28;20058;-44
2021/03/10 05:34:18;;;;;;;62.10;37.85;;;;;;;2.54;80.75;95875.44;4991492;28;20057;-42
2021/03/10 05:36:44;;;;;;;60.33;36.55;;;;;;;2.14;81.87;95878.47;4992176;28;20128;-44
2021/03/10 05:39:14;;;;;;;59.80;36.20;;;;;;;2.03;82.44;95891.88;4993345;28;20050;-42
2021/03/10 05:41:41;;;;;;;60.55;35.20;;;;;;;2.00;82.43;95881.78;4987925;28;20520;-41
2021/03/10 05:44:08;;;;;;;66.32;38.60;;;;;;;2.02;83.15;95889.50;4993896;28;20065;-41
2021/03/10 05:46:36;;;;;;;65.80;39.03;;;;;;;1.93;83.06;95880.50;4998007;28;20470;-41
2021/03/10 05:49:05;;;;;;;61.38;36.17;;;;;;;1.88;83.10;95892.00;4984718;28;20062;-45
2021/03/10 05:51:33;;;;;;;58.38;35.53;;;;;;;1.92;83.06;95873.56;4998564;28;20054;-42
2021/03/10 05:54:02;;;;;;;62.92;36.65;;;;;;;1.97;82.66;95879.66;4997054;28;20058;-41
2021/03/10 05:56:28;;;;;;;59.80;36.15;;;;;;;2.16;81.98;95881.66;4998449;28;20042;-43
2021/03/10 05:59:03;;;;;;;63.25;38.00;;;;;;;2.25;81.48;95888.00;4986272;28;20058;-42
2021/03/10 06:01:30;;;;;;;60.03;36.05;;;;;;;2.10;81.60;95899.56;4991473;28;20062;-44
2021/03/10 06:04:00;;;;;;;57.30;34.53;;;;;;;1.93;82.55;95891.19;4989088;28;20061;-41
2021/03/10 06:06:34;;;;;;;60.72;35.10;;;;;;;1.87;83.13;95885.06;4991664;28;20508;-42
2021/03/10 06:09:13;;;;;;;61.72;35.25;;;;;;;1.90;83.11;95884.53;4988745;28;20158;-43
2021/03/10 06:11:56;;;;;;;57.38;34.58;;;;;;;1.82;83.50;95882.44;4976744;28;20054;-40
2021/03/10 06:14:23;;;;;;;55.28;34.08;;;;;;;1.94;83.12;95885.53;4989773;28;20057;-42
2021/03/10 06:17:00;;;;;;;56.47;34.53;;;;;;;2.10;82.94;95891.56;4987515;28;20528;-41
2021/03/10 06:19:27;;;;;;;54.08;32.35;;;;;;;1.89;82.67;95888.28;4988577;28;20046;-44
2021/03/10 06:21:53;;;;;;;57.53;34.33;;;;;;;2.12;82.42;95893.97;4978461;28;20065;-41
2021/03/10 06:24:31;;;;;;;65.38;36.65;;;;;;;2.04;82.78;95896.13;4990092;28;20050;-41
2021/03/10 06:26:58;;;;;;;60.33;34.50;;;;;;;1.96;82.69;95912.75;4990776;28;20102;-42
2021/03/10 06:29:24;;;;;;;58.25;34.10;;;;;;;2.23;81.62;95912.28;4987049;28;20058;-46
2021/03/10 06:32:07;;;;;;;60.58;37.10;;;;;;;2.28;82.19;95914.13;4991346;28;20116;-42
2021/03/10 06:34:51;;;;;;;61.53;35.13;;;;;;;1.99;82.94;95904.19;4990770;28;20170;-42
2021/03/10 06:37:30;;;;;;;62.35;33.83;;;;;;;2.24;82.84;95907.75;4977177;28;20653;-41
2021/03/10 06:40:25;;;;;;;54.33;33.63;;;;;;;2.33;81.66;95908.75;4982345;28;20064;-42
2021/03/10 06:42:55;;;;;;;61.75;35.05;;;;;;;2.44;81.87;95912.09;4987081;28;20416;-41
2021/03/10 06:45:30;;;;;;;56.33;33.88;;;;;;;2.25;81.61;95896.78;4973902;28;20051;-43
2021/03/10 06:47:56;;;;;;;56.78;32.55;;;;;;;2.14;81.80;95923.84;4991115;28;20054;-42
2021/03/10 06:50:36;;;;;;;57.67;33.33;;;;;;;2.13;82.40;95930.25;4983608;28;20420;-42
2021/03/10 06:53:03;;;;;;;54.25;32.97;;;;;;;2.08;82.56;95933.75;4988575;28;20054;-41
2021/03/10 06:55:44;;;;;;;55.40;32.67;;;;;;;2.15;82.55;95928.91;4991279;28;20060;-41
2021/03/10 06:58:21;;;;;;;56.20;32.25;;;;;;;2.10;82.29;95927.06;4992864;28;20122;-41
2021/03/10 07:00:48;;;;;;;59.30;33.60;;;;;;;2.30;82.20;95941.31;4980032;28;20101;-52
2021/03/10 07:03:15;;;;;;;57.05;34.00;;;;;;;2.27;82.29;95942.69;4993113;28;20046;-43
2021/03/10 07:05:43;;;;;;;56.40;33.47;;;;;;;2.46;81.38;95929.44;4993569;28;20069;-42
2021/03/10 07:08:22;;;;;;;54.05;32.83;;;;;;;2.47;81.55;95947.09;5066115;28;20343;-45
2021/03/10 07:10:49;;;;;;;53.15;32.88;;;;;;;2.60;81.20;95937.63;5049575;28;20053;-41
2021/03/10 07:13:30;;;;;;;52.50;32.45;;;;;;;2.75;81.17;95936.69;5059419;28;20636;-43
2021/03/10 07:15:56;;;;;;;52.10;31.58;;;;;;;2.86;80.92;95942.72;5054655;28;20123;-42
2021/03/10 07:18:25;;;;;;;53.55;30.35;;;;;;;2.61;80.92;95947.22;5062461;28;20106;-41
2021/03/10 07:20:52;;;;;;;50.38;31.10;;;;;;;2.52;80.77;95955.03;5050193;28;20764;-44
2021/03/10 07:23:20;;;;;;;53.60;32.20;;;;;;;2.80;80.02;95950.00;5057221;28;20057;-44
2021/03/10 07:25:48;;;;;;;58.42;33.33;;;;;;;2.54;80.68;95965.47;5067626;28;20057;-42
2021/03/10 07:28:28;;;;;;;55.78;33.78;;;;;;;2.65;80.78;95960.81;5067531;28;20506;-43
2021/03/10 07:30:54;;;;;;;55.17;32.70;;;;;;;2.66;80.73;95954.38;5067941;28;20071;-43
2021/03/10 07:33:22;;;;;;;51.53;30.95;;;;;;;2.72;80.12;95969.28;5088086;28;20056;-45
2021/03/10 07:35:52;;;;;;;51.20;32.53;;;;;;;2.78;80.78;95970.84;5080082;28;20055;-42
2021/03/10 07:38:20;;;;;;;54.90;33.42;;;;;;;2.97;80.12;95977.06;5067784;28;20048;-42
2021/03/10 07:40:58;;;;;;;55.78;33.33;;;;;;;3.15;79.70;95977.44;5065424;28;20048;-43
2021/03/10 07:43:41;;;;;;;50.30;31.58;;;;;;;3.03;78.80;95975.94;5066363;28;20056;-46
2021/03/10 07:46:25;;;;;;;51.08;30.80;;;;;;;2.84;79.44;95993.78;5067277;28;20053;-45
2021/03/10 07:48:53;;;;;;;51.90;30.23;;;;;;;2.69;80.36;95988.56;5069252;28;20107;-42
2021/03/10 07:51:25;;;;;;;53.22;30.95;;;;;;;2.89;79.95;95988.38;5046629;28;20476;-43
2021/03/10 07:53:52;;;;;;;51.47;31.13;;;;;;;3.23;78.90;95979.50;5047655;28;20111;-44
2021/03/10 07:56:29;;;;;;;52.28;31.20;;;;;;;2.91;79.91;95994.25;5047353;28;20463;-42
2021/03/10 07:59:08;;;;;;;51.50;30.42;;;;;;;3.01;79.47;95996.81;5047342;28;20053;-43
2021/03/10 08:01:35;;;;;;;52.33;30.63;;;;;;;3.10;79.97;95988.19;5046935;28;20049;-42
2021/03/10 08:04:11;;;;;;;49.80;29.73;;;;;;;3.27;79.04;95991.22;5047553;28;20053;-43
2021/03/10 08:06:49;;;;;;;45.53;29.90;;;;;;;3.34;79.03;96002.34;5047214;28;20483;-44
2021/03/10 08:09:20;;;;;;;45.67;28.60;;;;;;;3.38;77.94;95998.06;5046400;28;20065;-43
2021/03/10 08:12:01;;;;;;;53.03;31.92;;;;;;;3.59;78.10;96005.84;5047008;28;20119;-43
2021/03/10 08:14:44;;;;;;;45.28;28.20;;;;;;;3.21;77.94;95997.69;5048517;28;20479;-45
2021/03/10 08:17:25;;;;;;;48.85;30.85;;;;;;;3.36;78.42;95994.88;5064476;28;20155;-42
2021/03/10 08:20:01;;;;;;;48.97;29.75;;;;;;;3.27;78.86;95999.22;5047881;28;20068;-45
2021/03/10 08:22:30;;;;;;;52.40;29.63;;;;;;;3.42;77.61;95990.25;5035803;28;20159;-44
2021/03/10 08:24:59;;;;;;;45.15;29.65;;;;;;;3.18;78.72;96000.94;5034539;28;20041;-44
2021/03/10 08:27:35;;;;;;;49.25;30.90;;;;;;;3.18;78.86;96009.75;5051425;28;20047;-42
2021/03/10 08:30:05;;;;;;;51.88;30.65;;;;;;;3.72;77.72;95997.91;5032927;28;20067;-43
2021/03/10 08:32:33;;;;;;;50.65;30.92;;;;;;;3.63;77.29;96001.50;5033850;28;20064;-43
2021/03/10 08:35:16;;;;;;;47.13;29.52;;;;;;;3.26;78.39;96005.66;5045246;28;20140;-43
2021/03/10 08:37:51;;;;;;;51.67;31.15;;;;;;;2.89;80.45;96023.09;5044240;28;20045;-43
2021/03/10 08:40:19;;;;;;;54.10;30.50;;;;;;;2.68;81.10;96013.69;5031770;28;20057;-44
2021/03/10 08:42:46;;;;;;;53.13;30.55;;;;;;;2.76;80.94;96005.88;5031921;28;20065;-43
2021/03/10 08:45:27;;;;;;;50.58;29.55;;;;;;;2.84;81.11;96009.81;5045980;28;20576;-42
2021/03/10 08:48:01;;;;;;;51.58;31.23;;;;;;;3.07;81.05;96012.81;5052247;28;20052;-42
2021/03/10 08:50:31;;;;;;;53.45;31.90;;;;;;;2.95;81.26;96016.63;5038132;28;20053;-42
2021/03/10 08:53:03;;;;;;;55.00;31.95;;;;;;;2.84;81.22;96017.03;5037556;28;20045;-42
2021/03/10 08:55:31;;;;;;;54.08;31.58;;;;;;;3.01;81.20;96015.53;5046911;28;20049;-44
2021/03/10 08:58:00;;;;;;;56.78;30.77;;;;;;;3.01;80.46;96020.88;5046548;28;20418;-43
2021/03/10 09:00:28;;;;;;;51.72;29.20;;;;;;;2.89;81.45;96025.78;5038087;28;20132;-45
2021/03/10 09:02:55;;;;;;;55.63;32.35;;;;;;;2.97;81.41;96035.09;5033209;28;20053;-44
2021/03/10 09:05:28;;;;;;;60.08;32.20;;;;;;;3.08;81.61;96025.88;5051117;28;20049;-43
2021/03/10 09:07:59;;;;;;;55.72;30.60;;;;;;;3.34;80.13;96029.09;5041501;28;20104;-43
2021/03/10 09:10:27;;;;;;;50.33;30.63;;;;;;;3.19;80.52;96027.41;5048687;28;20605;-45
2021/03/10 09:13:03;;;;;;;56.05;30.48;;;;;;;3.15;80.15;96031.72;5033628;28;20049;-43
2021/03/10 09:15:31;;;;;;;50.83;29.90;;;;;;;3.10;80.12;96025.63;5046829;28;20046;-43
2021/03/10 09:18:12;;;;;;;51.30;31.08;;;;;;;3.14;80.91;96026.63;5043911;28;20563;-49
2021/03/10 09:20:46;;;;;;;49.75;29.63;;;;;;;3.42;79.58;96020.47;5049916;28;20072;-46
2021/03/10 09:23:25;;;;;;;47.75;29.38;;;;;;;3.32;79.60;96012.56;5032286;28;20049;-44
2021/03/10 09:25:55;;;;;;;49.73;29.23;;;;;;;3.23;79.72;96031.09;5033384;28;20076;-46
2021/03/10 09:28:35;;;;;;;49.30;29.83;;;;;;;3.09;80.11;96032.03;5045127;28;20301;-47
2021/03/10 09:31:31;;;;;;;52.78;30.70;;;;;;;3.06;80.66;96024.59;5043465;28;20076;-46
2021/03/10 09:34:05;;;;;;;49.55;29.80;;;;;;;3.11;80.21;96021.84;5034008;28;20049;-49
2021/03/10 09:36:41;;;;;;;51.03;29.33;;;;;;;3.29;80.10;96023.81;5043118;28;20044;-47
2021/03/10 09:39:16;;;;;;;47.60;27.23;;;;;;;3.40;79.22;96019.16;5044038;28;20060;-47
2021/03/10 09:41:49;;;;;;;50.22;30.05;;;;;;;3.40;79.54;96017.28;5038237;28;20103;-48
2021/03/10 09:44:24;;;;;;;48.60;28.23;;;;;;;3.76;78.46;96019.53;5031119;28;20136;-44
2021/03/10 09:46:51;;;;;;;45.10;26.73;;;;;;;3.83;77.36;96021.88;5035581;28;20037;-44
2021/03/10 09:49:20;;;;;;;46.05;27.63;;;;;;;3.69;78.10;96014.53;5043905;28;20049;-48
2021/03/10 09:51:50;;;;;;;45.03;26.42;;;;;;;3.49;78.01;96023.59;5021977;28;20053;-49
2021/03/10 09:54:20;;;;;;;45.28;26.35;;;;;;;3.70;78.62;96023.34;5033110;28;20084;-46
2021/03/10 09:56:53;;;;;;;46.72;28.08;;;;;;;3.96;78.02;96026.53;5034722;28;20052;-47
2021/03/10 09:59:33;;;;;;;47.45;29.27;;;;;;;4.05;77.79;96026.69;5042806;28;20049;-46
2021/03/10 10:02:09;;;;;;;46.65;27.95;;;;;;;4.40;76.76;96026.19;5047953;28;20048;-47
2021/03/10 10:04:40;;;;;;;45.13;25.88;;;;;;;4.11;76.04;96012.16;5047128;28;20053;-46
2021/03/10 10:07:09;;;;;;;45.17;26.60;;;;;;;4.28;75.83;96030.38;5044517;28;20052;-46
2021/03/10 10:09:43;;;;;;;47.22;26.55;;;;;;;4.01;76.87;96014.97;5038184;28;20068;-42
2021/03/10 10:12:17;;;;;;;48.10;26.83;;;;;;;3.96;77.25;96026.53;5037018;28;20053;-44
2021/03/10 10:15:03;;;;;;;40.35;24.10;;;;;;;4.03;75.98;96012.78;5045002;28;20777;-49
2021/03/10 10:17:33;;;;;;;40.05;26.17;;;;;;;4.04;75.67;96017.06;5039495;28;20131;-45
2021/03/10 10:20:06;;;;;;;36.05;22.95;;;;;;;3.97;76.10;96018.22;5048462;28;20057;-46
2021/03/10 10:22:34;;;;;;;37.97;24.38;;;;;;;4.25;75.74;96026.41;5044017;28;20081;-45
2021/03/10 10:25:03;;;;;;;40.00;23.65;;;;;;;4.31;74.74;96021.78;5036505;28;20061;-45
2021/03/10 10:27:31;;;;;;;38.58;23.08;;;;;;;4.31;74.22;96013.75;5012353;28;20068;-49
2021/03/10 10:29:59;;;;;;;36.95;23.02;;;;;;;4.59;73.24;96015.47;5029034;28;20071;-45
2021/03/10 10:32:26;;;;;;;40.75;24.90;;;;;;;4.64;72.89;96018.06;5035472;28;20106;-46
2021/03/10 10:34:55;;;;;;;36.10;23.52;;;;;;;4.49;73.30;96020.19;5035842;28;20046;-46
2021/03/10 10:37:22;;;;;;;39.75;23.55;;;;;;;4.37;74.50;96007.22;5032905;28;20037;-43
2021/03/10 10:39:55;;;;;;;38.30;23.58;;;;;;;5.06;72.45;96020.88;5037827;28;20053;-44
2021/03/10 10:42:23;;;;;;;34.85;21.73;;;;;;;4.94;71.30;96016.00;5032608;28;20053;-47
2021/03/10 10:44:55;;;;;;;37.35;23.88;;;;;;;5.05;71.18;96019.28;5036007;28;20068;-43
2021/03/10 10:47:25;;;;;;;36.70;22.70;;;;;;;5.13;71.07;96018.59;5051513;28;20060;-43
2021/03/10 10:50:06;;;;;;;35.00;22.27;;;;;;;4.77;71.57;96018.41;5030007;28;20045;-44
2021/03/10 10:52:36;;;;;;;33.53;21.13;;;;;;;5.10;71.44;96021.88;5028104;28;20045;-45
2021/03/10 10:55:08;;;;;;;33.75;21.35;;;;;;;5.07;69.52;96011.72;5037441;28;20053;-45
2021/03/10 10:57:35;;;;;;;31.87;21.33;;;;;;;4.72;69.87;96019.28;5019122;28;20086;-44
2021/03/10 11:00:07;;;;;;;33.80;21.05;;;;;;;4.54;71.88;96017.41;5032081;28;20300;-46
2021/03/10 11:02:35;;;;;;;32.88;20.80;;;;;;;4.76;70.64;96006.09;5020693;28;20045;-44
2021/03/10 11:05:10;;;;;;;33.25;21.85;;;;;;;4.66;71.05;96009.75;5032126;28;20152;-46
2021/03/10 11:07:39;;;;;;;32.40;19.58;;;;;;;4.88;69.37;96006.44;5034438;28;20064;-49
2021/03/10 11:10:08;;;;;;;35.33;20.60;;;;;;;4.92;69.34;96008.22;5038803;28;20041;-43
2021/03/10 11:12:41;;;;;;;32.60;20.75;;;;;;;4.93;68.37;96007.13;5033407;28;20421;-44
2021/03/10 11:15:09;;;;;;;29.30;18.30;;;;;;;5.14;66.46;96009.47;5033954;28;20102;-46
2021/03/10 11:17:46;;;;;;;28.95;19.38;;;;;;;5.56;66.47;96005.75;5016469;28;20041;-46
2021/03/10 11:20:16;;;;;;;36.80;23.02;;;;;;;5.66;65.20;96004.75;5036051;28;20513;-45
2021/03/10 11:22:42;;;;;;;30.98;20.15;;;;;;;5.20;67.39;96008.31;5044167;28;20056;-49
2021/03/10 11:25:11;;;;;;;33.50;20.98;;;;;;;4.93;68.68;95990.25;5027952;28;20049;-47
2021/03/10 11:27:39;;;;;;;32.92;20.38;;;;;;;4.79;68.00;96009.00;5029661;28;20073;-48
2021/03/10 11:30:11;;;;;;;27.80;19.40;;;;;;;4.30;71.09;96012.94;5029223;28;20152;-45
2021/03/10 11:32:41;;;;;;;30.63;19.00;;;;;;;4.18;71.66;96001.88;5032434;28;20567;-47
2021/03/10 11:35:11;;;;;;;29.85;17.73;;;;;;;4.18;70.87;96004.53;5034755;28;20053;-45
2021/03/10 11:37:38;;;;;;;28.42;17.60;;;;;;;3.88;69.63;96003.88;5036376;28;20049;-46